Time,TemperatureF,DewpointF,PressureIn,WindDirection,WindDirectionDegrees,WindSpeedMPH,WindSpeedGustMPH,Humidity,HourlyPrecipIn,Conditions,Clouds,dailyrainin,SoftwareType,DateUTC
2013-07-15 00:00:00,70.8,69.0,30.25,SSE,152,0.0,0.0,94,0.00,,,0.00,Wunderground v.1.15,2013-07-15 05:00:00,
2013-07-15 00:05:00,70.7,68.6,30.25,SSE,152,0.0,0.0,93,0.00,,,0.00,Wunderground v.1.15,2013-07-15 05:05:00,
2013-07-15 00:15:00,70.6,68.5,30.25,SSE,152,0.0,0.0,93,0.00,,,0.00,Wunderground v.1.15,2013-07-15 05:15:00,
2013-07-15 00:20:00,70.6,68.5,30.25,SSE,148,0.0,0.0,93,0.00,,,0.00,Wunderground v.1.15,2013-07-15 05:20:00,
2013-07-15 00:30:00,70.5,68.4,30.25,SSE,149,0.0,0.0,93,0.00,,,0.00,Wunderground v.1.15,2013-07-15 05:30:00,
2013-07-15 00:35:00,70.4,68.3,30.25,SSE,148,0.0,0.0,93,0.00,,,0.00,Wunderground v.1.15,2013-07-15 05:35:00,
2013-07-15 00:40:00,70.4,68.3,30.25,SSE,148,0.0,0.0,93,0.00,,,0.00,Wunderground v.1.15,2013-07-15 05:40:00,
2013-07-15 00:45:00,70.3,68.2,30.25,SSE,148,0.0,0.0,93,0.00,,,0.00,Wunderground v.1.15,2013-07-15 05:45:00,
2013-07-15 00:50:00,70.2,68.1,30.25,SSE,148,0.0,0.0,93,0.00,,,0.00,Wunderground v.1.15,2013-07-15 05:50:00,
2013-07-15 01:00:00,69.9,67.8,30.25,SSE,149,0.0,0.0,93,0.00,,,0.00,Wunderground v.1.15,2013-07-15 06:00:00,
2013-07-15 01:05:00,69.8,67.7,30.25,SSE,148,0.0,0.0,93,0.00,,,0.00,Wunderground v.1.15,2013-07-15 06:05:00,
2013-07-15 01:15:00,69.7,67.9,30.25,SSE,148,0.0,0.0,94,0.00,,,0.00,Wunderground v.1.15,2013-07-15 06:15:00,
2013-07-15 01:25:00,69.5,67.7,30.25,SSE,148,0.0,0.0,94,0.00,,,0.00,Wunderground v.1.15,2013-07-15 06:25:00,
2013-07-15 01:30:00,69.5,67.7,30.25,SSE,149,0.0,0.0,94,0.00,,,0.00,Wunderground v.1.15,2013-07-15 06:30:00,
2013-07-15 01:35:00,69.4,67.6,30.25,SSE,149,0.0,0.0,94,0.00,,,0.00,Wunderground v.1.15,2013-07-15 06:35:00,
2013-07-15 01:40:00,69.4,67.6,30.26,SSE,148,0.0,0.0,94,0.00,,,0.00,Wunderground v.1.15,2013-07-15 06:40:00,
2013-07-15 01:50:00,69.3,67.5,30.26,SSE,149,0.0,0.0,94,0.00,,,0.00,Wunderground v.1.15,2013-07-15 06:50:00,
2013-07-15 02:00:00,69.2,67.4,30.26,SSE,148,0.0,0.0,94,0.00,,,0.00,Wunderground v.1.15,2013-07-15 07:00:00,
2013-07-15 02:05:00,69.1,67.3,30.26,SSE,148,0.0,0.0,94,0.00,,,0.00,Wunderground v.1.15,2013-07-15 07:05:00,
2013-07-15 02:15:00,69.0,67.2,30.26,SSE,149,0.0,0.0,94,0.00,,,0.00,Wunderground v.1.15,2013-07-15 07:15:00,
2013-07-15 02:20:00,69.0,67.2,30.26,SSE,149,0.0,0.0,94,0.00,,,0.00,Wunderground v.1.15,2013-07-15 07:20:00,
2013-07-15 02:30:00,69.0,67.2,30.26,SSE,148,0.0,0.0,94,0.00,,,0.00,Wunderground v.1.15,2013-07-15 07:30:00,
2013-07-15 02:35:00,68.9,67.1,30.26,SSE,149,0.0,0.0,94,0.00,,,0.00,Wunderground v.1.15,2013-07-15 07:35:00,
2013-07-15 02:40:00,68.9,67.1,30.26,SSE,149,0.0,0.0,94,0.00,,,0.00,Wunderground v.1.15,2013-07-15 07:40:00,
2013-07-15 02:45:00,68.8,67.0,30.26,SSE,149,0.0,0.0,94,0.00,,,0.00,Wunderground v.1.15,2013-07-15 07:45:00,
2013-07-15 02:55:00,68.7,66.9,30.26,SSE,149,0.0,0.0,94,0.00,,,0.00,Wunderground v.1.15,2013-07-15 07:55:00,
2013-07-15 03:00:00,68.7,66.9,30.27,SSE,148,0.0,0.0,94,0.00,,,0.00,Wunderground v.1.15,2013-07-15 08:00:00,
2013-07-15 03:05:00,68.7,66.9,30.26,SSE,149,0.0,0.0,94,0.00,,,0.00,Wunderground v.1.15,2013-07-15 08:05:00,
2013-07-15 03:15:00,68.5,66.7,30.27,SSE,149,0.0,0.0,94,0.00,,,0.00,Wunderground v.1.15,2013-07-15 08:15:00,
2013-07-15 03:20:00,68.5,66.7,30.27,SSE,149,0.0,0.0,94,0.00,,,0.00,Wunderground v.1.15,2013-07-15 08:20:00,
2013-07-15 03:25:00,68.4,66.6,30.27,SSE,148,0.0,0.0,94,0.00,,,0.00,Wunderground v.1.15,2013-07-15 08:25:00,
2013-07-15 03:30:00,68.4,66.9,30.27,SSE,148,0.0,0.0,95,0.00,,,0.00,Wunderground v.1.15,2013-07-15 08:30:00,
2013-07-15 03:40:00,68.3,66.8,30.26,SSE,149,0.0,0.0,95,0.00,,,0.00,Wunderground v.1.15,2013-07-15 08:40:00,
2013-07-15 03:45:00,68.3,66.8,30.26,SSE,149,0.0,0.0,95,0.00,,,0.00,Wunderground v.1.15,2013-07-15 08:45:00,
2013-07-15 03:55:00,68.2,66.7,30.26,SSE,148,0.0,0.0,95,0.00,,,0.00,Wunderground v.1.15,2013-07-15 08:55:00,
2013-07-15 04:00:00,68.1,66.6,30.26,SSE,148,0.0,0.0,95,0.00,,,0.00,Wunderground v.1.15,2013-07-15 09:00:00,
2013-07-15 04:05:00,68.0,66.5,30.26,SSE,148,0.0,0.0,95,0.00,,,0.00,Wunderground v.1.15,2013-07-15 09:05:00,
2013-07-15 04:15:00,68.0,66.5,30.26,SSE,148,0.0,0.0,95,0.00,,,0.00,Wunderground v.1.15,2013-07-15 09:15:00,
2013-07-15 04:20:00,67.9,66.4,30.26,SSE,148,0.0,0.0,95,0.00,,,0.00,Wunderground v.1.15,2013-07-15 09:20:00,
2013-07-15 04:25:00,67.9,66.4,30.27,SSE,149,0.0,0.0,95,0.00,,,0.00,Wunderground v.1.15,2013-07-15 09:25:00,
2013-07-15 04:30:00,67.9,66.4,30.27,SSE,149,0.0,0.0,95,0.00,,,0.00,Wunderground v.1.15,2013-07-15 09:30:00,
2013-07-15 04:40:00,67.9,66.4,30.27,SSE,149,0.0,0.0,95,0.00,,,0.00,Wunderground v.1.15,2013-07-15 09:40:00,
2013-07-15 04:45:00,67.9,66.4,30.27,SSE,148,0.0,0.0,95,0.00,,,0.00,Wunderground v.1.15,2013-07-15 09:45:00,
2013-07-15 04:50:00,67.8,66.3,30.27,SSE,148,0.0,0.0,95,0.00,,,0.00,Wunderground v.1.15,2013-07-15 09:50:00,
2013-07-15 05:00:00,67.9,66.4,30.27,SSE,148,0.0,0.0,95,0.00,,,0.00,Wunderground v.1.15,2013-07-15 10:00:00,
2013-07-15 05:05:00,67.9,66.4,30.27,SSE,149,0.0,0.0,95,0.00,,,0.00,Wunderground v.1.15,2013-07-15 10:05:00,
2013-07-15 05:15:00,67.9,66.4,30.27,SSE,149,0.0,0.0,95,0.00,,,0.00,Wunderground v.1.15,2013-07-15 10:15:00,
2013-07-15 05:25:00,67.8,66.3,30.27,SSE,149,0.0,0.0,95,0.00,,,0.00,Wunderground v.1.15,2013-07-15 10:25:00,
2013-07-15 05:30:00,67.8,66.3,30.27,SSE,148,0.0,0.0,95,0.00,,,0.00,Wunderground v.1.15,2013-07-15 10:30:00,
2013-07-15 05:35:00,67.8,66.3,30.27,SSE,148,0.0,0.0,95,0.00,,,0.00,Wunderground v.1.15,2013-07-15 10:35:00,
2013-07-15 05:40:00,67.8,66.3,30.28,SSE,149,0.0,0.0,95,0.00,,,0.00,Wunderground v.1.15,2013-07-15 10:40:00,
2013-07-15 05:45:00,67.7,66.2,30.28,SSE,149,0.0,0.0,95,0.00,,,0.00,Wunderground v.1.15,2013-07-15 10:45:00,
2013-07-15 05:55:00,67.8,66.3,30.28,SSE,148,0.0,0.0,95,0.00,,,0.00,Wunderground v.1.15,2013-07-15 10:55:00,
2013-07-15 06:00:00,67.8,66.3,30.28,SSE,148,0.0,0.0,95,0.00,,,0.00,Wunderground v.1.15,2013-07-15 11:00:00,
2013-07-15 06:05:00,67.9,66.4,30.28,SSE,149,0.0,0.0,95,0.00,,,0.00,Wunderground v.1.15,2013-07-15 11:05:00,
2013-07-15 06:15:00,67.9,66.4,30.28,SSE,148,0.0,0.0,95,0.00,,,0.00,Wunderground v.1.15,2013-07-15 11:15:00,
2013-07-15 06:20:00,67.9,66.4,30.28,SSE,149,0.0,0.0,95,0.00,,,0.00,Wunderground v.1.15,2013-07-15 11:20:00,
2013-07-15 06:25:00,67.9,66.4,30.28,SSE,148,0.0,0.0,95,0.00,,,0.00,Wunderground v.1.15,2013-07-15 11:25:00,
2013-07-15 06:30:00,68.0,66.5,30.28,SSE,148,0.0,0.0,95,0.00,,,0.00,Wunderground v.1.15,2013-07-15 11:30:00,
2013-07-15 06:40:00,68.1,66.6,30.28,SSE,148,0.0,0.0,95,0.00,,,0.00,Wunderground v.1.15,2013-07-15 11:40:00,
2013-07-15 06:50:00,68.7,67.2,30.28,SSE,149,0.0,0.0,95,0.00,,,0.00,Wunderground v.1.15,2013-07-15 11:50:00,
2013-07-15 06:55:00,69.0,67.5,30.28,SSE,148,0.0,0.0,95,0.00,,,0.00,Wunderground v.1.15,2013-07-15 11:55:00,
2013-07-15 07:00:00,69.4,67.9,30.28,SSE,149,0.0,0.0,95,0.00,,,0.00,Wunderground v.1.15,2013-07-15 12:00:00,
2013-07-15 07:05:00,69.7,68.2,30.28,SSE,149,0.0,0.0,95,0.00,,,0.00,Wunderground v.1.15,2013-07-15 12:05:00,
2013-07-15 07:15:00,70.3,68.5,30.29,SSE,148,0.0,0.0,94,0.00,,,0.00,Wunderground v.1.15,2013-07-15 12:15:00,
2013-07-15 07:20:00,70.7,68.9,30.29,SSE,149,0.0,0.0,94,0.00,,,0.00,Wunderground v.1.15,2013-07-15 12:20:00,
2013-07-15 07:30:00,71.5,69.4,30.29,SSE,154,0.0,0.0,93,0.00,,,0.00,Wunderground v.1.15,2013-07-15 12:30:00,
2013-07-15 07:35:00,71.9,69.4,30.29,SSE,153,0.0,0.0,92,0.00,,,0.00,Wunderground v.1.15,2013-07-15 12:35:00,
2013-07-15 07:40:00,72.5,70.0,30.29,SSE,163,0.0,1.0,92,0.00,,,0.00,Wunderground v.1.15,2013-07-15 12:40:00,
2013-07-15 07:50:00,73.5,70.7,30.29,SSE,164,0.0,0.0,91,0.00,,,0.00,Wunderground v.1.15,2013-07-15 12:50:00,
2013-07-15 07:55:00,74.1,71.0,30.29,SSE,164,0.0,0.0,90,0.00,,,0.00,Wunderground v.1.15,2013-07-15 12:55:00,
2013-07-15 08:00:00,74.6,71.1,30.30,SSE,164,0.0,0.0,89,0.00,,,0.00,Wunderground v.1.15,2013-07-15 13:00:00,
2013-07-15 08:05:00,74.9,71.1,30.30,SSE,164,0.0,2.0,88,0.00,,,0.00,Wunderground v.1.15,2013-07-15 13:05:00,
2013-07-15 08:15:00,75.9,72.1,30.30,East,98,0.0,0.0,88,0.00,,,0.00,Wunderground v.1.15,2013-07-15 13:15:00,
2013-07-15 08:20:00,76.6,72.4,30.30,East,97,0.0,0.0,87,0.00,,,0.00,Wunderground v.1.15,2013-07-15 13:20:00,
2013-07-15 08:25:00,77.0,72.5,30.30,East,97,0.0,0.0,86,0.00,,,0.00,Wunderground v.1.15,2013-07-15 13:25:00,
2013-07-15 08:30:00,77.3,72.4,30.30,ESE,104,0.0,0.0,85,0.00,,,0.00,Wunderground v.1.15,2013-07-15 13:30:00,
2013-07-15 08:35:00,77.3,72.4,30.31,South,175,0.0,0.0,85,0.00,,,0.00,Wunderground v.1.15,2013-07-15 13:35:00,
2013-07-15 08:40:00,77.6,72.4,30.31,South,175,0.0,0.0,84,0.00,,,0.00,Wunderground v.1.15,2013-07-15 13:40:00,
2013-07-15 08:45:00,77.8,72.9,30.31,ENE,76,0.0,0.0,85,0.00,,,0.00,Wunderground v.1.15,2013-07-15 13:45:00,
2013-07-15 08:55:00,78.5,73.3,30.30,East,80,0.0,0.0,84,0.00,,,0.00,Wunderground v.1.15,2013-07-15 13:55:00,
2013-07-15 09:00:00,78.9,73.3,30.31,East,88,0.0,0.0,83,0.00,,,0.00,Wunderground v.1.15,2013-07-15 14:00:00,
2013-07-15 09:05:00,78.7,73.1,30.30,East,94,0.0,0.0,83,0.00,,,0.00,Wunderground v.1.15,2013-07-15 14:05:00,
2013-07-15 09:15:00,78.7,73.5,30.30,SSE,163,0.0,0.0,84,0.00,,,0.00,Wunderground v.1.15,2013-07-15 14:15:00,
2013-07-15 09:20:00,78.7,73.8,30.30,SSE,163,0.0,0.0,85,0.00,,,0.00,Wunderground v.1.15,2013-07-15 14:20:00,
2013-07-15 09:30:00,79.1,73.8,30.30,SSE,161,0.0,0.0,84,0.00,,,0.00,Wunderground v.1.15,2013-07-15 14:30:00,
2013-07-15 09:40:00,79.9,74.6,30.30,SE,128,0.0,0.0,84,0.00,,,0.00,Wunderground v.1.15,2013-07-15 14:40:00,
2013-07-15 09:45:00,79.9,74.3,30.30,SE,136,0.0,0.0,83,0.00,,,0.00,Wunderground v.1.15,2013-07-15 14:45:00,
2013-07-15 09:55:00,80.5,75.2,30.30,NNE,13,0.0,0.0,84,0.00,,,0.00,Wunderground v.1.15,2013-07-15 14:55:00,
2013-07-15 10:00:00,81.3,76.0,30.30,NE,42,0.0,0.0,84,0.00,,,0.00,Wunderground v.1.15,2013-07-15 15:00:00,
2013-07-15 10:05:00,81.7,75.7,30.30,East,90,0.0,1.0,82,0.00,,,0.00,Wunderground v.1.15,2013-07-15 15:05:00,
2013-07-15 10:10:00,82.0,76.0,30.30,ESE,116,0.0,0.0,82,0.00,,,0.00,Wunderground v.1.15,2013-07-15 15:10:00,
2013-07-15 10:25:00,82.8,76.0,30.30,East,101,0.0,1.0,80,0.00,,,0.00,Wunderground v.1.15,2013-07-15 15:25:00,
2013-07-15 10:30:00,83.2,75.6,30.30,South,171,1.0,1.0,78,0.00,,,0.00,Wunderground v.1.15,2013-07-15 15:30:00,
2013-07-15 10:35:00,83.0,75.8,30.30,East,99,1.0,1.0,79,0.00,,,0.00,Wunderground v.1.15,2013-07-15 15:35:00,
2013-07-15 10:45:00,84.1,75.7,30.30,South,171,0.0,0.0,76,0.00,,,0.00,Wunderground v.1.15,2013-07-15 15:45:00,
2013-07-15 10:50:00,84.0,76.4,30.30,South,171,0.0,0.0,78,0.00,,,0.00,Wunderground v.1.15,2013-07-15 15:50:00,
2013-07-15 11:00:00,84.6,75.8,30.30,SE,142,0.0,1.0,75,0.00,,,0.00,Wunderground v.1.15,2013-07-15 16:00:00,
2013-07-15 11:05:00,84.3,75.5,30.30,ESE,102,0.0,1.0,75,0.00,,,0.00,Wunderground v.1.15,2013-07-15 16:05:00,
2013-07-15 11:10:00,84.4,76.4,30.30,ESE,102,0.0,0.0,77,0.00,,,0.00,Wunderground v.1.15,2013-07-15 16:10:00,
2013-07-15 11:20:00,84.6,75.4,30.29,East,90,1.0,4.0,74,0.00,,,0.00,Wunderground v.1.15,2013-07-15 16:20:00,
2013-07-15 11:30:00,85.5,76.7,30.30,East,91,0.0,0.0,75,0.00,,,0.00,Wunderground v.1.15,2013-07-15 16:30:00,
2013-07-15 11:35:00,85.4,75.3,30.29,SSE,155,0.0,0.0,72,0.00,,,0.00,Wunderground v.1.15,2013-07-15 16:35:00,
2013-07-15 11:45:00,85.2,76.4,30.29,SSE,165,0.0,0.0,75,0.00,,,0.00,Wunderground v.1.15,2013-07-15 16:45:00,
2013-07-15 11:55:00,85.0,76.6,30.30,SSE,157,0.0,1.0,76,0.00,,,0.00,Wunderground v.1.15,2013-07-15 16:55:00,
2013-07-15 12:00:00,85.0,75.4,30.30,SSE,157,0.0,0.0,73,0.00,,,0.00,Wunderground v.1.15,2013-07-15 17:00:00,
2013-07-15 12:05:00,84.8,76.0,30.29,SSE,157,0.0,1.0,75,0.00,,,0.00,Wunderground v.1.15,2013-07-15 17:05:00,
2013-07-15 12:15:00,85.7,76.0,30.29,SSE,157,0.0,0.0,73,0.00,,,0.00,Wunderground v.1.15,2013-07-15 17:15:00,
2013-07-15 12:20:00,85.5,75.9,30.30,SSE,157,0.0,0.0,73,0.00,,,0.00,Wunderground v.1.15,2013-07-15 17:20:00,
2013-07-15 12:25:00,85.2,76.0,30.29,SSE,156,0.0,0.0,74,0.00,,,0.00,Wunderground v.1.15,2013-07-15 17:25:00,
2013-07-15 12:30:00,85.6,76.4,30.29,SSE,156,0.0,0.0,74,0.00,,,0.00,Wunderground v.1.15,2013-07-15 17:30:00,
2013-07-15 12:35:00,86.1,76.4,30.29,East,93,0.0,0.0,73,0.00,,,0.00,Wunderground v.1.15,2013-07-15 17:35:00,
2013-07-15 12:45:00,86.8,75.8,30.29,East,94,0.0,0.0,70,0.00,,,0.00,Wunderground v.1.15,2013-07-15 17:45:00,
2013-07-15 12:55:00,87.8,76.8,30.29,East,94,0.0,0.0,70,0.00,,,0.00,Wunderground v.1.15,2013-07-15 17:55:00,
2013-07-15 13:00:00,87.4,76.4,30.29,East,94,0.0,0.0,70,0.00,,,0.00,Wunderground v.1.15,2013-07-15 18:00:00,
2013-07-15 13:05:00,88.1,76.6,30.29,East,94,0.0,0.0,69,0.00,,,0.00,Wunderground v.1.15,2013-07-15 18:05:00,
2013-07-15 13:15:00,88.1,76.6,30.29,West,271,0.0,0.0,69,0.00,,,0.00,Wunderground v.1.15,2013-07-15 18:15:00,
2013-07-15 13:20:00,88.3,76.4,30.29,West,271,0.0,0.0,68,0.00,,,0.00,Wunderground v.1.15,2013-07-15 18:20:00,
2013-07-15 13:35:00,87.8,73.6,30.28,West,265,0.0,1.0,63,0.00,,,0.00,Wunderground v.1.15,2013-07-15 18:35:00,
2013-07-15 13:40:00,87.8,75.0,30.28,WSW,239,0.0,0.0,66,0.00,,,0.00,Wunderground v.1.15,2013-07-15 18:40:00,
2013-07-15 13:50:00,87.3,75.0,30.28,ESE,106,0.0,2.0,67,0.00,,,0.00,Wunderground v.1.15,2013-07-15 18:50:00,
2013-07-15 14:00:00,87.9,77.3,30.27,South,186,0.0,0.0,71,0.00,,,0.00,Wunderground v.1.15,2013-07-15 19:00:00,
2013-07-15 14:05:00,87.4,75.1,30.27,ESE,115,0.0,0.0,67,0.00,,,0.00,Wunderground v.1.15,2013-07-15 19:05:00,
2013-07-15 14:15:00,87.2,75.3,30.27,East,99,0.0,1.0,68,0.00,,,0.00,Wunderground v.1.15,2013-07-15 19:15:00,
2013-07-15 14:20:00,87.9,75.1,30.27,ESE,103,0.0,0.0,66,0.00,,,0.00,Wunderground v.1.15,2013-07-15 19:20:00,
2013-07-15 14:25:00,88.5,74.8,30.27,ESE,113,0.0,0.0,64,0.00,,,0.00,Wunderground v.1.15,2013-07-15 19:25:00,
2013-07-15 14:30:00,89.1,76.3,30.27,ESE,113,0.0,0.0,66,0.00,,,0.00,Wunderground v.1.15,2013-07-15 19:30:00,
2013-07-15 14:35:00,89.3,76.4,30.27,SE,137,0.0,0.0,66,0.00,,,0.00,Wunderground v.1.15,2013-07-15 19:35:00,
2013-07-15 14:40:00,89.0,76.2,30.27,South,176,0.0,5.0,66,0.00,,,0.00,Wunderground v.1.15,2013-07-15 19:40:00,
2013-07-15 14:45:00,88.6,75.8,30.27,SSE,150,0.0,5.0,66,0.00,,,0.00,Wunderground v.1.15,2013-07-15 19:45:00,
2013-07-15 14:50:00,88.5,76.6,30.27,SE,136,0.0,0.0,68,0.00,,,0.00,Wunderground v.1.15,2013-07-15 19:50:00,
2013-07-15 14:55:00,88.4,76.0,30.27,SSE,149,0.0,0.0,67,0.00,,,0.00,Wunderground v.1.15,2013-07-15 19:55:00,
2013-07-15 15:10:00,88.1,76.6,30.26,SSE,149,0.0,0.0,69,0.00,,,0.00,Wunderground v.1.15,2013-07-15 20:10:00,
2013-07-15 15:15:00,88.6,76.7,30.26,ESE,118,0.0,0.0,68,0.00,,,0.00,Wunderground v.1.15,2013-07-15 20:15:00,
2013-07-15 15:25:00,88.3,75.5,30.25,South,175,0.0,4.0,66,0.00,,,0.00,Wunderground v.1.15,2013-07-15 20:25:00,
2013-07-15 15:30:00,87.5,76.9,30.25,SSE,155,0.0,2.0,71,0.00,,,0.00,Wunderground v.1.15,2013-07-15 20:30:00,
2013-07-15 15:35:00,87.3,76.7,30.25,SE,130,0.0,2.0,71,0.00,,,0.00,Wunderground v.1.15,2013-07-15 20:35:00,
2013-07-15 15:40:00,87.6,77.0,30.25,SE,130,0.0,1.0,71,0.00,,,0.00,Wunderground v.1.15,2013-07-15 20:40:00,
2013-07-15 15:50:00,88.3,76.4,30.25,East,96,1.0,1.0,68,0.00,,,0.00,Wunderground v.1.15,2013-07-15 20:50:00,
2013-07-15 15:55:00,88.8,77.7,30.25,East,95,0.0,1.0,70,0.00,,,0.00,Wunderground v.1.15,2013-07-15 20:55:00,
2013-07-15 16:05:00,88.4,76.9,30.25,East,90,0.0,0.0,69,0.00,,,0.00,Wunderground v.1.15,2013-07-15 21:05:00,
2013-07-15 16:15:00,88.3,76.4,30.25,ESE,113,0.0,0.0,68,0.00,,,0.00,Wunderground v.1.15,2013-07-15 21:15:00,
2013-07-15 16:20:00,87.6,76.2,30.25,East,94,0.0,0.0,69,0.00,,,0.00,Wunderground v.1.15,2013-07-15 21:20:00,
2013-07-15 16:30:00,87.8,76.4,30.24,East,94,0.0,0.0,69,0.00,,,0.00,Wunderground v.1.15,2013-07-15 21:30:00,
2013-07-15 16:40:00,87.9,75.1,30.24,East,94,0.0,0.0,66,0.00,,,0.00,Wunderground v.1.15,2013-07-15 21:40:00,
2013-07-15 16:50:00,88.4,76.0,30.24,South,169,0.0,2.0,67,0.00,,,0.00,Wunderground v.1.15,2013-07-15 21:50:00,
2013-07-15 17:00:00,87.6,76.6,30.24,SSE,157,0.0,0.0,70,0.00,,,0.00,Wunderground v.1.15,2013-07-15 22:00:00,
2013-07-15 17:05:00,87.2,75.3,30.24,SSE,161,0.0,0.0,68,0.00,,,0.00,Wunderground v.1.15,2013-07-15 22:05:00,
2013-07-15 17:15:00,85.5,76.3,30.24,ESE,123,1.0,1.0,74,0.00,,,0.00,Wunderground v.1.15,2013-07-15 22:15:00,
2013-07-15 17:20:00,84.8,76.0,30.24,South,171,1.0,1.0,75,0.00,,,0.00,Wunderground v.1.15,2013-07-15 22:20:00,
2013-07-15 17:25:00,84.3,76.3,30.24,SSE,163,0.0,1.0,77,0.00,,,0.00,Wunderground v.1.15,2013-07-15 22:25:00,
2013-07-15 17:30:00,84.3,76.7,30.24,South,175,0.0,0.0,78,0.00,,,0.00,Wunderground v.1.15,2013-07-15 22:30:00,
2013-07-15 17:35:00,84.8,77.2,30.23,South,175,0.0,0.0,78,0.00,,,0.00,Wunderground v.1.15,2013-07-15 22:35:00,
2013-07-15 17:45:00,84.7,76.7,30.23,SE,128,0.0,0.0,77,0.00,,,0.00,Wunderground v.1.15,2013-07-15 22:45:00,
2013-07-15 17:50:00,84.5,76.1,30.23,SSE,159,0.0,0.0,76,0.00,,,0.00,Wunderground v.1.15,2013-07-15 22:50:00,
2013-07-15 17:55:00,84.5,76.5,30.23,ESE,114,0.0,0.0,77,0.00,,,0.00,Wunderground v.1.15,2013-07-15 22:55:00,
2013-07-15 18:00:00,84.6,76.2,30.23,SSE,157,0.0,0.0,76,0.00,,,0.00,Wunderground v.1.15,2013-07-15 23:00:00,
2013-07-15 18:05:00,84.5,76.1,30.23,SSE,153,0.0,0.0,76,0.00,,,0.00,Wunderground v.1.15,2013-07-15 23:05:00,
2013-07-15 18:15:00,84.6,75.8,30.23,SSE,153,0.0,0.0,75,0.00,,,0.00,Wunderground v.1.15,2013-07-15 23:15:00,
2013-07-15 18:20:00,84.8,76.0,30.23,SSE,153,0.0,0.0,75,0.00,,,0.00,Wunderground v.1.15,2013-07-15 23:20:00,
2013-07-15 18:25:00,84.8,75.6,30.23,SSE,149,0.0,0.0,74,0.00,,,0.00,Wunderground v.1.15,2013-07-15 23:25:00,
2013-07-15 18:30:00,84.8,76.0,30.23,ESE,106,0.0,0.0,75,0.00,,,0.00,Wunderground v.1.15,2013-07-15 23:30:00,
2013-07-15 18:40:00,84.7,75.9,30.23,ESE,107,0.0,0.0,75,0.00,,,0.00,Wunderground v.1.15,2013-07-15 23:40:00,
2013-07-15 18:50:00,84.5,75.3,30.24,SE,129,0.0,0.0,74,0.00,,,0.00,Wunderground v.1.15,2013-07-15 23:50:00,
2013-07-15 18:55:00,84.4,75.6,30.24,SE,130,0.0,0.0,75,0.00,,,0.00,Wunderground v.1.15,2013-07-15 23:55:00,
2013-07-15 19:00:00,84.1,74.9,30.23,SE,129,0.0,0.0,74,0.00,,,0.00,Wunderground v.1.15,2013-07-16 00:00:00,
2013-07-15 19:05:00,84.1,74.9,30.24,SE,130,0.0,0.0,74,0.00,,,0.00,Wunderground v.1.15,2013-07-16 00:05:00,
2013-07-15 19:15:00,83.7,74.1,30.24,SE,130,0.0,0.0,73,0.00,,,0.00,Wunderground v.1.15,2013-07-16 00:15:00,
2013-07-15 19:20:00,83.6,74.4,30.24,SE,130,0.0,0.0,74,0.00,,,0.00,Wunderground v.1.15,2013-07-16 00:20:00,
2013-07-15 19:30:00,83.1,75.1,30.24,SE,129,0.0,0.0,77,0.00,,,0.00,Wunderground v.1.15,2013-07-16 00:30:00,
2013-07-15 19:35:00,82.8,75.6,30.24,SE,130,0.0,0.0,79,0.00,,,0.00,Wunderground v.1.15,2013-07-16 00:35:00,
2013-07-15 19:40:00,82.5,75.3,30.24,SE,129,0.0,0.0,79,0.00,,,0.00,Wunderground v.1.15,2013-07-16 00:40:00,
2013-07-15 19:50:00,81.8,75.0,30.24,SE,130,0.0,0.0,80,0.00,,,0.00,Wunderground v.1.15,2013-07-16 00:50:00,
2013-07-15 19:55:00,81.4,75.4,30.24,SE,129,0.0,0.0,82,0.00,,,0.00,Wunderground v.1.15,2013-07-16 00:55:00,
2013-07-15 20:05:00,80.8,75.2,30.24,SE,130,0.0,0.0,83,0.00,,,0.00,Wunderground v.1.15,2013-07-16 01:05:00,
2013-07-15 20:15:00,80.3,75.4,30.24,East,80,0.0,0.0,85,0.00,,,0.00,Wunderground v.1.15,2013-07-16 01:15:00,
2013-07-15 20:20:00,80.1,75.2,30.24,East,81,0.0,0.0,85,0.00,,,0.00,Wunderground v.1.15,2013-07-16 01:20:00,
2013-07-15 20:25:00,79.9,75.3,30.24,East,81,0.0,0.0,86,0.00,,,0.00,Wunderground v.1.15,2013-07-16 01:25:00,
2013-07-15 20:35:00,79.5,75.3,30.24,East,80,0.0,0.0,87,0.00,,,0.00,Wunderground v.1.15,2013-07-16 01:35:00,
2013-07-15 20:40:00,79.2,75.0,30.24,East,80,0.0,0.0,87,0.00,,,0.00,Wunderground v.1.15,2013-07-16 01:40:00,
2013-07-15 20:45:00,78.9,75.0,30.25,East,80,0.0,0.0,88,0.00,,,0.00,Wunderground v.1.15,2013-07-16 01:45:00,
2013-07-15 20:50:00,78.7,74.8,30.25,East,81,0.0,0.0,88,0.00,,,0.00,Wunderground v.1.15,2013-07-16 01:50:00,
2013-07-15 20:55:00,78.5,75.0,30.25,East,81,0.0,0.0,89,0.00,,,0.00,Wunderground v.1.15,2013-07-16 01:55:00,
2013-07-15 21:05:00,77.9,74.7,30.25,East,80,0.0,0.0,90,0.00,,,0.00,Wunderground v.1.15,2013-07-16 02:05:00,
2013-07-15 21:15:00,77.5,74.7,30.25,East,80,0.0,0.0,91,0.00,,,0.00,Wunderground v.1.15,2013-07-16 02:15:00,
2013-07-15 21:20:00,77.2,74.4,30.25,East,81,0.0,0.0,91,0.00,,,0.00,Wunderground v.1.15,2013-07-16 02:20:00,
2013-07-15 21:30:00,76.7,74.2,30.25,East,80,0.0,0.0,92,0.00,,,0.00,Wunderground v.1.15,2013-07-16 02:30:00,
2013-07-15 21:35:00,76.5,74.0,30.25,East,81,0.0,0.0,92,0.00,,,0.00,Wunderground v.1.15,2013-07-16 02:35:00,
2013-07-15 21:40:00,76.3,73.8,30.26,East,81,0.0,0.0,92,0.00,,,0.00,Wunderground v.1.15,2013-07-16 02:40:00,
2013-07-15 21:45:00,76.1,73.6,30.26,East,81,0.0,0.0,92,0.00,,,0.00,Wunderground v.1.15,2013-07-16 02:45:00,
2013-07-15 21:50:00,76.0,73.8,30.26,East,81,0.0,0.0,93,0.00,,,0.00,Wunderground v.1.15,2013-07-16 02:50:00,
2013-07-15 21:55:00,75.9,73.7,30.26,East,81,0.0,0.0,93,0.00,,,0.00,Wunderground v.1.15,2013-07-16 02:55:00,
2013-07-15 22:05:00,75.7,73.5,30.26,East,80,0.0,0.0,93,0.00,,,0.00,Wunderground v.1.15,2013-07-16 03:05:00,
2013-07-15 22:15:00,75.5,73.3,30.26,East,81,0.0,0.0,93,0.00,,,0.00,Wunderground v.1.15,2013-07-16 03:15:00,
2013-07-15 22:25:00,75.3,73.5,30.27,East,80,0.0,0.0,94,0.00,,,0.00,Wunderground v.1.15,2013-07-16 03:25:00,
2013-07-15 22:30:00,75.2,73.4,30.27,East,81,0.0,0.0,94,0.00,,,0.00,Wunderground v.1.15,2013-07-16 03:30:00,
2013-07-15 22:35:00,75.1,73.3,30.27,East,80,0.0,0.0,94,0.00,,,0.00,Wunderground v.1.15,2013-07-16 03:35:00,
2013-07-15 22:45:00,75.1,73.3,30.27,East,81,0.0,0.0,94,0.00,,,0.00,Wunderground v.1.15,2013-07-16 03:45:00,
2013-07-15 22:55:00,75.1,73.3,30.27,East,81,0.0,0.0,94,0.00,,,0.00,Wunderground v.1.15,2013-07-16 03:55:00,
2013-07-15 23:00:00,75.1,73.3,30.27,East,81,0.0,0.0,94,0.00,,,0.00,Wunderground v.1.15,2013-07-16 04:00:00,
2013-07-15 23:05:00,75.0,73.2,30.27,East,81,0.0,0.0,94,0.00,,,0.00,Wunderground v.1.15,2013-07-16 04:05:00,
2013-07-15 23:10:00,75.0,73.2,30.27,East,80,0.0,0.0,94,0.00,,,0.00,Wunderground v.1.15,2013-07-16 04:10:00,
2013-07-15 23:15:00,75.0,73.2,30.28,East,81,0.0,0.0,94,0.00,,,0.00,Wunderground v.1.15,2013-07-16 04:15:00,
2013-07-15 23:20:00,74.9,73.1,30.28,East,92,0.0,0.0,94,0.00,,,0.00,Wunderground v.1.15,2013-07-16 04:20:00,
2013-07-15 23:25:00,75.1,73.3,30.28,East,92,0.0,0.0,94,0.00,,,0.00,Wunderground v.1.15,2013-07-16 04:25:00,
2013-07-15 23:30:00,75.3,73.5,30.28,East,91,0.0,0.0,94,0.00,,,0.00,Wunderground v.1.15,2013-07-16 04:30:00,
2013-07-15 23:35:00,75.4,73.6,30.28,East,92,0.0,0.0,94,0.00,,,0.00,Wunderground v.1.15,2013-07-16 04:35:00,
2013-07-15 23:40:00,75.5,73.3,30.28,East,92,0.0,0.0,93,0.00,,,0.00,Wunderground v.1.15,2013-07-16 04:40:00,
2013-07-15 23:50:00,75.7,73.5,30.28,ESE,113,0.0,0.0,93,0.00,,,0.00,Wunderground v.1.15,2013-07-16 04:50:00,
2013-07-15 23:55:00,75.8,73.3,30.28,SE,132,0.0,0.0,92,0.00,,,0.00,Wunderground v.1.15,2013-07-16 04:55:00,